sensor_id;sensor_type;location;lat;lon;timestamp;pressure;altitude;pressure_sealevel;temperature;humidity
30110;BME280;14965;50.660;13.226;2023-10-19T00:00:34;93605.34;;;5.19;84.36
30110;BME280;14965;50.660;13.226;2023-10-19T00:03:00;93612.69;;;5.22;84.58
30110;BME280;14965;50.660;13.226;2023-10-19T00:05:26;93587.16;;;5.25;84.07
30110;BME280;14965;50.660;13.226;2023-10-19T00:07:52;93597.91;;;5.33;84.33
30110;BME280;14965;50.660;13.226;2023-10-19T00:10:18;93580.63;;;5.36;83.74
30110;BME280;14965;50.660;13.226;2023-10-19T00:12:45;93580.53;;;5.39;83.54
30110;BME280;14965;50.660;13.226;2023-10-19T00:15:11;93576.13;;;5.42;83.63
30110;BME280;14965;50.660;13.226;2023-10-19T00:17:37;93589.72;;;5.45;83.13
30110;BME280;14965;50.660;13.226;2023-10-19T00:20:06;93580.53;;;5.39;82.86
30110;BME280;14965;50.660;13.226;2023-10-19T00:22:32;93573.06;;;5.40;83.21
30110;BME280;14965;50.660;13.226;2023-10-19T00:24:58;93575.47;;;5.38;82.98
30110;BME280;14965;50.660;13.226;2023-10-19T00:27:23;93573.38;;;5.42;83.52
30110;BME280;14965;50.660;13.226;2023-10-19T00:29:51;93578.88;;;5.42;82.80
30110;BME280;14965;50.660;13.226;2023-10-19T00:32:17;93564.41;;;5.41;83.58
30110;BME280;14965;50.660;13.226;2023-10-19T00:34:43;93557.97;;;5.35;84.21
30110;BME280;14965;50.660;13.226;2023-10-19T00:37:09;93562.88;;;5.28;85.01
30110;BME280;14965;50.660;13.226;2023-10-19T00:39:35;93555.09;;;5.26;86.73
30110;BME280;14965;50.660;13.226;2023-10-19T00:42:01;93539.09;;;5.24;87.41
30110;BME280;14965;50.660;13.226;2023-10-19T00:44:27;93549.19;;;5.28;87.99
30110;BME280;14965;50.660;13.226;2023-10-19T00:46:54;93523.78;;;5.27;88.25
30110;BME280;14965;50.660;13.226;2023-10-19T00:49:20;93515.56;;;5.27;87.94
30110;BME280;14965;50.660;13.226;2023-10-19T00:51:51;93506.25;;;5.24;88.30
30110;BME280;14965;50.660;13.226;2023-10-19T00:54:21;93512.84;;;5.27;89.10
30110;BME280;14965;50.660;13.226;2023-10-19T00:56:48;93519.50;;;5.26;88.89
30110;BME280;14965;50.660;13.226;2023-10-19T00:59:18;93508.56;;;5.26;89.26
30110;BME280;14965;50.660;13.226;2023-10-19T01:01:45;93511.63;;;5.28;89.52
30110;BME280;14965;50.660;13.226;2023-10-19T01:04:13;93506.56;;;5.27;88.95
30110;BME280;14965;50.660;13.226;2023-10-19T01:06:39;93513.91;;;5.30;89.90
30110;BME280;14965;50.660;13.226;2023-10-19T01:09:05;93520.72;;;5.25;90.80
30110;BME280;14965;50.660;13.226;2023-10-19T01:11:31;93506.25;;;5.24;90.97
30110;BME280;14965;50.660;13.226;2023-10-19T01:13:57;93507.47;;;5.23;90.60
30110;BME280;14965;50.660;13.226;2023-10-19T01:16:23;93497.28;;;5.24;90.94
30110;BME280;14965;50.660;13.226;2023-10-19T01:18:50;93504.72;;;5.23;91.17
30110;BME280;14965;50.660;13.226;2023-10-19T01:21:17;93501.66;;;5.21;91.18
30110;BME280;14965;50.660;13.226;2023-10-19T01:23:46;93514.16;;;5.22;91.49
30110;BME280;14965;50.660;13.226;2023-10-19T01:26:11;93514.91;;;5.23;92.01
30110;BME280;14965;50.660;13.226;2023-10-19T01:28:38;93514.16;;;5.22;91.51
30110;BME280;14965;50.660;13.226;2023-10-19T01:31:04;93519.72;;;5.19;92.56
30110;BME280;14965;50.660;13.226;2023-10-19T01:33:30;93520.50;;;5.19;92.80
30110;BME280;14965;50.660;13.226;2023-10-19T01:35:56;93510.41;;;5.16;94.21
30110;BME280;14965;50.660;13.226;2023-10-19T01:38:22;93507.78;;;5.13;94.87
30110;BME280;14965;50.660;13.226;2023-10-19T01:40:49;93508.66;;;5.10;95.23
30110;BME280;14965;50.660;13.226;2023-10-19T01:43:15;93493.22;;;5.03;95.60
30110;BME280;14965;50.660;13.226;2023-10-19T01:45:41;93474.63;;;4.98;96.78
30110;BME280;14965;50.660;13.226;2023-10-19T01:48:07;93471.63;;;4.92;97.29
30110;BME280;14965;50.660;13.226;2023-10-19T01:50:33;93448.22;;;4.91;98.11
30110;BME280;14965;50.660;13.226;2023-10-19T01:52:59;93443.22;;;4.90;98.93
30110;BME280;14965;50.660;13.226;2023-10-19T01:55:25;93422.41;;;4.80;100.00
30110;BME280;14965;50.660;13.226;2023-10-19T01:57:52;93408.81;;;4.76;100.00
30110;BME280;14965;50.660;13.226;2023-10-19T02:00:19;93405.88;;;4.70;100.00
30110;BME280;14965;50.660;13.226;2023-10-19T02:02:45;93401.94;;;4.71;100.00
30110;BME280;14965;50.660;13.226;2023-10-19T02:05:11;93403.91;;;4.71;100.00
30110;BME280;14965;50.660;13.226;2023-10-19T02:07:37;93398.53;;;4.67;100.00
30110;BME280;14965;50.660;13.226;2023-10-19T02:10:03;93393.16;;;4.64;100.00
30110;BME280;14965;50.660;13.226;2023-10-19T02:12:29;93398.97;;;4.66;100.00
30110;BME280;14965;50.660;13.226;2023-10-19T02:14:56;93414.94;;;4.67;100.00
30110;BME280;14965;50.660;13.226;2023-10-19T02:17:22;93405.88;;;4.70;100.00
30110;BME280;14965;50.660;13.226;2023-10-19T02:19:48;93410.22;;;4.68;100.00
30110;BME280;14965;50.660;13.226;2023-10-19T02:22:14;93398.00;;;4.72;100.00
30110;BME280;14965;50.660;13.226;2023-10-19T02:24:40;93394.72;;;4.78;100.00
30110;BME280;14965;50.660;13.226;2023-10-19T02:27:06;93387.19;;;4.82;100.00
30110;BME280;14965;50.660;13.226;2023-10-19T02:29:32;93391.00;;;4.84;100.00
30110;BME280;14965;50.660;13.226;2023-10-19T02:31:59;93376.91;;;4.86;100.00
30110;BME280;14965;50.660;13.226;2023-10-19T02:34:25;93381.25;;;4.83;100.00
30110;BME280;14965;50.660;13.226;2023-10-19T02:36:51;93368.47;;;4.80;100.00
30110;BME280;14965;50.660;13.226;2023-10-19T02:39:17;93363.22;;;4.73;100.00
30110;BME280;14965;50.660;13.226;2023-10-19T02:41:45;93366.81;;;4.70;100.00
30110;BME280;14965;50.660;13.226;2023-10-19T02:44:15;93362.22;;;4.67;100.00
30110;BME280;14965;50.660;13.226;2023-10-19T02:46:41;93373.91;;;4.67;100.00
30110;BME280;14965;50.660;13.226;2023-10-19T02:49:10;93362.97;;;4.67;100.00
30110;BME280;14965;50.660;13.226;2023-10-19T02:51:37;93368.91;;;4.66;100.00
30110;BME280;14965;50.660;13.226;2023-10-19T02:54:05;93375.13;;;4.66;100.00
30110;BME280;14965;50.660;13.226;2023-10-19T02:56:31;93374.38;;;4.66;100.00
30110;BME280;14965;50.660;13.226;2023-10-19T02:58:57;93373.59;;;4.65;100.00
30110;BME280;14965;50.660;13.226;2023-10-19T03:01:23;93367.03;;;4.63;100.00
30110;BME280;14965;50.660;13.226;2023-10-19T03:03:51;93374.47;;;4.62;100.00
30110;BME280;14965;50.660;13.226;2023-10-19T03:06:22;93367.03;;;4.63;100.00
30110;BME280;14965;50.660;13.226;2023-10-19T03:08:49;93363.88;;;4.64;100.00
30110;BME280;14965;50.660;13.226;2023-10-19T03:11:15;93371.63;;;4.66;100.00
30110;BME280;14965;50.660;13.226;2023-10-19T03:13:41;93358.72;;;4.66;100.00
30110;BME280;14965;50.660;13.226;2023-10-19T03:16:07;93364.66;;;4.65;100.00
30110;BME280;14965;50.660;13.226;2023-10-19T03:18:33;93354.47;;;4.65;100.00
30110;BME280;14965;50.660;13.226;2023-10-19T03:21:01;93356.34;;;4.68;100.00
30110;BME280;14965;50.660;13.226;2023-10-19T03:23:28;93357.41;;;4.71;100.00
30110;BME280;14965;50.660;13.226;2023-10-19T03:25:55;93356.19;;;4.72;100.00
30110;BME280;14965;50.660;13.226;2023-10-19T03:31:12;93343.63;;;4.62;100.00
30110;BME280;14965;50.660;13.226;2023-10-19T03:33:38;93349.88;;;4.62;100.00
30110;BME280;14965;50.660;13.226;2023-10-19T03:36:04;93349.09;;;4.62;100.00
30110;BME280;14965;50.660;13.226;2023-10-19T03:38:32;93345.16;;;4.63;100.00
30110;BME280;14965;50.660;13.226;2023-10-19T03:40:58;93339.59;;;4.66;100.00
30110;BME280;14965;50.660;13.226;2023-10-19T03:43:24;93338.28;;;4.71;100.00
30110;BME280;14965;50.660;13.226;2023-10-19T03:45:49;93336.63;;;4.73;100.00
30110;BME280;14965;50.660;13.226;2023-10-19T03:48:17;93329.66;;;4.72;100.00
30110;BME280;14965;50.660;13.226;2023-10-19T03:50:43;93321.75;;;4.74;100.00
30110;BME280;14965;50.660;13.226;2023-10-19T03:53:09;93321.75;;;4.74;100.00
30110;BME280;14965;50.660;13.226;2023-10-19T03:55:37;93320.88;;;4.78;100.00
30110;BME280;14965;50.660;13.226;2023-10-19T03:58:03;93327.78;;;4.82;100.00
30110;BME280;14965;50.660;13.226;2023-10-19T04:00:29;93324.59;;;4.84;100.00
30110;BME280;14965;50.660;13.226;2023-10-19T04:02:55;93308.63;;;4.82;100.00
30110;BME280;14965;50.660;13.226;2023-10-19T04:05:21;93324.28;;;4.82;100.00
30110;BME280;14965;50.660;13.226;2023-10-19T04:07:47;93310.16;;;4.83;100.00
30110;BME280;14965;50.660;13.226;2023-10-19T04:10:13;93306.66;;;4.83;100.00
30110;BME280;14965;50.660;13.226;2023-10-19T04:12:41;93305.44;;;4.84;100.00
30110;BME280;14965;50.660;13.226;2023-10-19T04:15:08;93304.22;;;4.85;100.00
30110;BME280;14965;50.660;13.226;2023-10-19T04:17:34;93304.69;;;4.83;100.00
30110;BME280;14965;50.660;13.226;2023-10-19T04:20:00;93310.91;;;4.84;100.00
30110;BME280;14965;50.660;13.226;2023-10-19T04:22:26;93300.72;;;4.84;100.00
30110;BME280;14965;50.660;13.226;2023-10-19T04:24:53;93305.44;;;4.84;100.00
30110;BME280;14965;50.660;13.226;2023-10-19T04:27:19;93296.03;;;4.85;100.00
30110;BME280;14965;50.660;13.226;2023-10-19T04:29:48;93299.56;;;4.85;100.00
30110;BME280;14965;50.660;13.226;2023-10-19T04:32:14;93287.81;;;4.85;100.00
30110;BME280;14965;50.660;13.226;2023-10-19T04:34:40;93278.09;;;4.84;100.00
30110;BME280;14965;50.660;13.226;2023-10-19T04:37:06;93265.63;;;4.83;100.00
30110;BME280;14965;50.660;13.226;2023-10-19T04:39:32;93263.66;;;4.83;100.00
30110;BME280;14965;50.660;13.226;2023-10-19T04:41:58;93269.88;;;4.84;100.00
30110;BME280;14965;50.660;13.226;2023-10-19T04:44:24;93260.47;;;4.85;100.00
30110;BME280;14965;50.660;13.226;2023-10-19T04:46:51;93261.25;;;4.85;100.00
30110;BME280;14965;50.660;13.226;2023-10-19T04:49:17;93246.38;;;4.86;100.00
30110;BME280;14965;50.660;13.226;2023-10-19T04:51:43;93260.81;;;4.87;100.00
30110;BME280;14965;50.660;13.226;2023-10-19T04:54:09;93244.41;;;4.87;100.00
30110;BME280;14965;50.660;13.226;2023-10-19T04:56:35;93248.22;;;4.89;100.00
30110;BME280;14965;50.660;13.226;2023-10-19T04:59:01;93231.81;;;4.89;100.00
30110;BME280;14965;50.660;13.226;2023-10-19T05:01:28;93233.75;;;4.89;100.00
30110;BME280;14965;50.660;13.226;2023-10-19T05:03:55;93232.88;;;4.92;100.00
30110;BME280;14965;50.660;13.226;2023-10-19T05:06:21;93221.94;;;4.92;100.00
30110;BME280;14965;50.660;13.226;2023-10-19T05:08:47;93230.16;;;4.92;100.00
30110;BME280;14965;50.660;13.226;2023-10-19T05:11:13;93232.13;;;4.91;100.00
30110;BME280;14965;50.660;13.226;2023-10-19T05:13:39;93241.44;;;4.94;100.00
30110;BME280;14965;50.660;13.226;2023-10-19T05:16:05;93252.38;;;4.94;100.00
30110;BME280;14965;50.660;13.226;2023-10-19T05:18:31;93238.81;;;4.90;100.00
30110;BME280;14965;50.660;13.226;2023-10-19T05:20:58;93237.28;;;4.89;100.00
30110;BME280;14965;50.660;13.226;2023-10-19T05:23:26;93250.50;;;4.91;100.00
30110;BME280;14965;50.660;13.226;2023-10-19T05:25:53;93249.88;;;4.87;100.00
30110;BME280;14965;50.660;13.226;2023-10-19T05:28:20;93234.97;;;4.88;100.00
30110;BME280;14965;50.660;13.226;2023-10-19T05:30:45;93241.97;;;4.89;100.00
30110;BME280;14965;50.660;13.226;2023-10-19T05:33:11;93240.34;;;4.91;100.00
30110;BME280;14965;50.660;13.226;2023-10-19T05:35:37;93245.34;;;4.93;100.00
30110;BME280;14965;50.660;13.226;2023-10-19T05:38:05;93256.94;;;4.97;100.00
30110;BME280;14965;50.660;13.226;2023-10-19T05:40:31;93253.13;;;4.94;100.00
30110;BME280;14965;50.660;13.226;2023-10-19T05:42:57;93277.00;;;4.94;100.00
30110;BME280;14965;50.660;13.226;2023-10-19T05:45:24;93264.50;;;4.93;100.00
30110;BME280;14965;50.660;13.226;2023-10-19T05:47:50;93269.09;;;4.96;100.00
30110;BME280;14965;50.660;13.226;2023-10-19T05:50:16;93265.94;;;4.97;100.00
30110;BME280;14965;50.660;13.226;2023-10-19T05:52:42;93268.97;;;4.99;100.00
30110;BME280;14965;50.660;13.226;2023-10-19T05:55:10;93269.75;;;5.00;100.00
30110;BME280;14965;50.660;13.226;2023-10-19T05:57:37;93271.59;;;5.03;100.00
30110;BME280;14965;50.660;13.226;2023-10-19T06:00:04;93272.25;;;5.07;100.00
30110;BME280;14965;50.660;13.226;2023-10-19T06:02:30;93259.63;;;5.10;100.00
30110;BME280;14965;50.660;13.226;2023-10-19T06:04:56;93263.16;;;5.10;100.00
30110;BME280;14965;50.660;13.226;2023-10-19T06:07:22;93260.84;;;5.09;100.00
30110;BME280;14965;50.660;13.226;2023-10-19T06:09:48;93256.13;;;5.09;100.00
30110;BME280;14965;50.660;13.226;2023-10-19T06:12:15;93246.09;;;5.06;100.00
30110;BME280;14965;50.660;13.226;2023-10-19T06:14:41;93260.09;;;5.08;100.00
30110;BME280;14965;50.660;13.226;2023-10-19T06:17:07;93258.56;;;5.07;100.00
30110;BME280;14965;50.660;13.226;2023-10-19T06:19:33;93257.81;;;5.07;100.00
30110;BME280;14965;50.660;13.226;2023-10-19T06:22:02;93257.81;;;5.07;100.00
30110;BME280;14965;50.660;13.226;2023-10-19T06:24:28;93262.06;;;5.08;100.00
30110;BME280;14965;50.660;13.226;2023-10-19T06:26:54;93257.81;;;5.07;100.00
30110;BME280;14965;50.660;13.226;2023-10-19T06:29:21;93262.53;;;5.06;100.00
30110;BME280;14965;50.660;13.226;2023-10-19T06:31:47;93256.25;;;5.06;100.00
30110;BME280;14965;50.660;13.226;2023-10-19T06:34:13;93255.06;;;5.07;100.00
30110;BME280;14965;50.660;13.226;2023-10-19T06:36:39;93256.25;;;5.06;100.00
30110;BME280;14965;50.660;13.226;2023-10-19T06:39:05;93264.03;;;5.07;100.00
30110;BME280;14965;50.660;13.226;2023-10-19T06:41:31;93261.19;;;5.11;100.00
30110;BME280;14965;50.660;13.226;2023-10-19T06:43:57;93257.53;;;5.14;100.00
30110;BME280;14965;50.660;13.226;2023-10-19T06:46:24;93256.03;;;5.13;100.00
30110;BME280;14965;50.660;13.226;2023-10-19T06:48:50;93266.66;;;5.11;100.00
30110;BME280;14965;50.660;13.226;2023-10-19T06:51:16;93267.44;;;5.11;100.00
30110;BME280;14965;50.660;13.226;2023-10-19T06:53:42;93272.03;;;5.14;100.00
30110;BME280;14965;50.660;13.226;2023-10-19T06:56:08;93276.59;;;5.17;100.00
30110;BME280;14965;50.660;13.226;2023-10-19T06:58:34;93261.25;;;5.20;100.00
30110;BME280;14965;50.660;13.226;2023-10-19T07:01:00;93265.09;;;5.22;100.00
30110;BME280;14965;50.660;13.226;2023-10-19T07:03:27;93260.06;;;5.21;100.00
30110;BME280;14965;50.660;13.226;2023-10-19T07:05:53;93257.31;;;5.21;100.00
30110;BME280;14965;50.660;13.226;2023-10-19T07:08:20;93267.25;;;5.28;100.00
30110;BME280;14965;50.660;13.226;2023-10-19T07:10:46;93259.25;;;5.33;100.00
30110;BME280;14965;50.660;13.226;2023-10-19T07:13:12;93260.75;;;5.34;100.00
30110;BME280;14965;50.660;13.226;2023-10-19T07:15:38;93258.78;;;5.35;100.00
30110;BME280;14965;50.660;13.226;2023-10-19T07:18:04;93257.59;;;5.36;100.00
30110;BME280;14965;50.660;13.226;2023-10-19T07:20:31;93246.53;;;5.39;100.00
30110;BME280;14965;50.660;13.226;2023-10-19T07:22:59;93259.66;;;5.44;100.00
30110;BME280;14965;50.660;13.226;2023-10-19T07:25:25;93250.22;;;5.45;100.00
30110;BME280;14965;50.660;13.226;2023-10-19T07:27:52;93265.00;;;5.48;100.00
30110;BME280;14965;50.660;13.226;2023-10-19T07:30:19;93267.28;;;5.49;100.00
30110;BME280;14965;50.660;13.226;2023-10-19T07:32:45;93259.38;;;5.52;100.00
30110;BME280;14965;50.660;13.226;2023-10-19T07:35:11;93273.84;;;5.52;100.00
30110;BME280;14965;50.660;13.226;2023-10-19T07:37:39;93265.50;;;5.56;100.00
30110;BME280;14965;50.660;13.226;2023-10-19T07:40:07;93267.03;;;5.57;100.00
30110;BME280;14965;50.660;13.226;2023-10-19T07:42:33;93263.53;;;5.56;100.00
30110;BME280;14965;50.660;13.226;2023-10-19T07:44:59;93271.31;;;5.58;100.00
30110;BME280;14965;50.660;13.226;2023-10-19T07:47:25;93264.19;;;5.60;100.00
30110;BME280;14965;50.660;13.226;2023-10-19T07:49:51;93261.28;;;5.64;100.00
30110;BME280;14965;50.660;13.226;2023-10-19T07:52:17;93255.69;;;5.67;100.00
30110;BME280;14965;50.660;13.226;2023-10-19T07:54:44;93256.66;;;5.73;100.00
30110;BME280;14965;50.660;13.226;2023-10-19T07:57:10;93259.69;;;5.75;100.00
30110;BME280;14965;50.660;13.226;2023-10-19T07:59:36;93250.59;;;5.79;100.00
30110;BME280;14965;50.660;13.226;2023-10-19T08:02:02;93243.00;;;5.83;100.00
30110;BME280;14965;50.660;13.226;2023-10-19T08:04:28;93233.16;;;5.85;100.00
30110;BME280;14965;50.660;13.226;2023-10-19T08:06:55;93234.53;;;5.90;100.00
30110;BME280;14965;50.660;13.226;2023-10-19T08:09:21;93228.03;;;5.96;100.00
30110;BME280;14965;50.660;13.226;2023-10-19T08:11:48;93231.88;;;5.99;100.00
30110;BME280;14965;50.660;13.226;2023-10-19T08:14:14;93220.78;;;6.03;100.00
30110;BME280;14965;50.660;13.226;2023-10-19T08:16:40;93211.50;;;6.09;100.00
30110;BME280;14965;50.660;13.226;2023-10-19T08:19:06;93216.25;;;6.18;100.00
30110;BME280;14965;50.660;13.226;2023-10-19T08:21:32;93208.53;;;6.26;100.00
30110;BME280;14965;50.660;13.226;2023-10-19T08:23:58;93206.16;;;6.37;100.00
30110;BME280;14965;50.660;13.226;2023-10-19T08:26:24;93196.59;;;6.51;100.00
30110;BME280;14965;50.660;13.226;2023-10-19T08:28:51;93187.31;;;6.66;100.00
30110;BME280;14965;50.660;13.226;2023-10-19T08:31:17;93182.31;;;6.83;100.00
30110;BME280;14965;50.660;13.226;2023-10-19T08:33:43;93184.63;;;6.94;100.00
30110;BME280;14965;50.660;13.226;2023-10-19T08:36:17;93176.69;;;7.05;100.00
30110;BME280;14965;50.660;13.226;2023-10-19T08:38:44;93167.25;;;7.15;100.00
30110;BME280;14965;50.660;13.226;2023-10-19T08:41:10;93165.72;;;7.23;100.00
30110;BME280;14965;50.660;13.226;2023-10-19T08:43:36;93176.09;;;7.29;100.00
30110;BME280;14965;50.660;13.226;2023-10-19T08:46:04;93171.22;;;7.33;100.00
30110;BME280;14965;50.660;13.226;2023-10-19T08:48:33;93172.88;;;7.39;100.00
30110;BME280;14965;50.660;13.226;2023-10-19T08:50:59;93174.22;;;7.44;100.00
30110;BME280;14965;50.660;13.226;2023-10-19T08:53:29;93176.22;;;7.53;100.00
30110;BME280;14965;50.660;13.226;2023-10-19T08:55:55;93186.72;;;7.63;100.00
30110;BME280;14965;50.660;13.226;2023-10-19T08:58:22;93180.31;;;7.76;100.00
30110;BME280;14965;50.660;13.226;2023-10-19T09:00:50;93172.78;;;7.85;100.00
30110;BME280;14965;50.660;13.226;2023-10-19T09:03:18;93175.97;;;7.93;100.00
30110;BME280;14965;50.660;13.226;2023-10-19T09:05:44;93176.28;;;7.95;100.00
30110;BME280;14965;50.660;13.226;2023-10-19T09:08:15;93193.66;;;8.01;100.00
30110;BME280;14965;50.660;13.226;2023-10-19T09:10:45;93187.84;;;8.08;100.00
30110;BME280;14965;50.660;13.226;2023-10-19T09:13:11;93187.69;;;8.12;100.00
30110;BME280;14965;50.660;13.226;2023-10-19T09:15:38;93188.56;;;8.18;100.00
30110;BME280;14965;50.660;13.226;2023-10-19T09:18:14;93185.97;;;8.23;100.00
30110;BME280;14965;50.660;13.226;2023-10-19T09:20:44;93187.63;;;8.30;100.00
30110;BME280;14965;50.660;13.226;2023-10-19T09:23:10;93189.88;;;8.32;100.00
30110;BME280;14965;50.660;13.226;2023-10-19T09:25:36;93193.72;;;8.34;100.00
30110;BME280;14965;50.660;13.226;2023-10-19T09:28:02;93192.63;;;8.32;100.00
30110;BME280;14965;50.660;13.226;2023-10-19T09:30:29;93192.19;;;8.33;100.00
30110;BME280;14965;50.660;13.226;2023-10-19T09:32:57;93192.34;;;8.39;100.00
30110;BME280;14965;50.660;13.226;2023-10-19T09:35:25;93201.19;;;8.43;100.00
30110;BME280;14965;50.660;13.226;2023-10-19T09:37:52;93204.25;;;8.45;100.00
30110;BME280;14965;50.660;13.226;2023-10-19T09:40:18;93195.34;;;8.50;100.00
30110;BME280;14965;50.660;13.226;2023-10-19T09:42:47;93197.41;;;8.64;100.00
30110;BME280;14965;50.660;13.226;2023-10-19T09:45:19;93185.13;;;8.75;100.00
30110;BME280;14965;50.660;13.226;2023-10-19T09:47:50;93183.66;;;8.88;100.00
30110;BME280;14965;50.660;13.226;2023-10-19T09:50:16;93185.25;;;9.04;100.00
30110;BME280;14965;50.660;13.226;2023-10-19T09:52:42;93184.34;;;9.22;100.00
30110;BME280;14965;50.660;13.226;2023-10-19T09:55:18;93186.09;;;9.34;100.00
30110;BME280;14965;50.660;13.226;2023-10-19T09:57:51;93186.78;;;9.44;100.00
30110;BME280;14965;50.660;13.226;2023-10-19T10:00:18;93180.06;;;9.45;100.00
30110;BME280;14965;50.660;13.226;2023-10-19T10:02:44;93176.81;;;9.46;100.00
30110;BME280;14965;50.660;13.226;2023-10-19T10:05:44;93173.31;;;9.46;100.00
30110;BME280;14965;50.660;13.226;2023-10-19T10:08:30;93174.63;;;9.51;100.00
30110;BME280;14965;50.660;13.226;2023-10-19T10:10:58;93169.13;;;9.51;100.00
30110;BME280;14965;50.660;13.226;2023-10-19T10:13:36;93164.47;;;9.57;100.00
30110;BME280;14965;50.660;13.226;2023-10-19T10:16:04;93174.38;;;9.63;100.00
30110;BME280;14965;50.660;13.226;2023-10-19T10:18:33;93170.28;;;9.73;100.00
30110;BME280;14965;50.660;13.226;2023-10-19T10:21:05;93172.66;;;9.81;100.00
30110;BME280;14965;50.660;13.226;2023-10-19T10:23:32;93171.81;;;9.89;100.00
30110;BME280;14965;50.660;13.226;2023-10-19T10:25:59;93161.91;;;9.97;100.00
30110;BME280;14965;50.660;13.226;2023-10-19T10:28:25;93154.78;;;10.06;100.00
30110;BME280;14965;50.660;13.226;2023-10-19T10:31:14;93163.50;;;10.19;100.00
30110;BME280;14965;50.660;13.226;2023-10-19T10:33:42;93148.50;;;10.35;100.00
30110;BME280;14965;50.660;13.226;2023-10-19T10:36:08;93137.91;;;10.48;100.00
30110;BME280;14965;50.660;13.226;2023-10-19T10:38:35;93140.88;;;10.65;100.00
30110;BME280;14965;50.660;13.226;2023-10-19T10:41:03;93136.56;;;10.79;100.00
30110;BME280;14965;50.660;13.226;2023-10-19T10:43:30;93137.78;;;10.78;100.00
30110;BME280;14965;50.660;13.226;2023-10-19T10:46:06;93133.03;;;10.78;100.00
30110;BME280;14965;50.660;13.226;2023-10-19T10:48:32;93131.59;;;10.83;100.00
30110;BME280;14965;50.660;13.226;2023-10-19T10:50:57;93129.41;;;10.87;100.00
30110;BME280;14965;50.660;13.226;2023-10-19T10:53:24;93132.91;;;10.87;100.00
30110;BME280;14965;50.660;13.226;2023-10-19T10:56:10;93123.03;;;10.81;100.00
30110;BME280;14965;50.660;13.226;2023-10-19T10:58:36;93122.47;;;10.77;100.00
30110;BME280;14965;50.660;13.226;2023-10-19T11:01:02;93121.31;;;10.83;100.00
30110;BME280;14965;50.660;13.226;2023-10-19T11:03:28;93115.00;;;11.03;100.00
30110;BME280;14965;50.660;13.226;2023-10-19T11:05:54;93108.13;;;11.13;100.00
30110;BME280;14965;50.660;13.226;2023-10-19T11:08:24;93113.69;;;11.19;100.00
30110;BME280;14965;50.660;13.226;2023-10-19T11:10:50;93111.97;;;11.21;100.00
30110;BME280;14965;50.660;13.226;2023-10-19T11:13:23;93108.94;;;11.19;100.00
30110;BME280;14965;50.660;13.226;2023-10-19T11:15:51;93105.16;;;11.17;100.00
30110;BME280;14965;50.660;13.226;2023-10-19T11:18:32;93113.50;;;11.22;100.00
30110;BME280;14965;50.660;13.226;2023-10-19T11:21:00;93108.09;;;11.34;100.00
30110;BME280;14965;50.660;13.226;2023-10-19T11:23:44;93102.13;;;11.41;100.00
30110;BME280;14965;50.660;13.226;2023-10-19T11:26:12;93112.63;;;11.37;100.00
30110;BME280;14965;50.660;13.226;2023-10-19T11:28:41;93111.28;;;11.27;100.00
30110;BME280;14965;50.660;13.226;2023-10-19T11:31:16;93107.41;;;11.18;100.00
30110;BME280;14965;50.660;13.226;2023-10-19T11:33:44;93101.88;;;11.18;100.00
30110;BME280;14965;50.660;13.226;2023-10-19T11:36:11;93089.38;;;11.23;100.00
30110;BME280;14965;50.660;13.226;2023-10-19T11:38:40;93089.91;;;11.27;100.00
30110;BME280;14965;50.660;13.226;2023-10-19T11:41:06;93080.94;;;11.32;100.00
30110;BME280;14965;50.660;13.226;2023-10-19T11:43:32;93082.50;;;11.39;100.00
30110;BME280;14965;50.660;13.226;2023-10-19T11:46:00;93089.88;;;11.47;100.00
30110;BME280;14965;50.660;13.226;2023-10-19T11:48:26;93091.72;;;11.56;100.00
30110;BME280;14965;50.660;13.226;2023-10-19T11:50:52;93087.28;;;11.64;100.00
30110;BME280;14965;50.660;13.226;2023-10-19T11:53:18;93091.13;;;11.72;100.00
30110;BME280;14965;50.660;13.226;2023-10-19T11:55:44;93093.03;;;11.87;100.00
30110;BME280;14965;50.660;13.226;2023-10-19T11:58:10;93085.59;;;11.99;100.00
30110;BME280;14965;50.660;13.226;2023-10-19T12:00:36;93087.94;;;12.11;100.00
30110;BME280;14965;50.660;13.226;2023-10-19T12:03:04;93078.75;;;12.26;100.00
30110;BME280;14965;50.660;13.226;2023-10-19T12:05:30;93080.34;;;12.38;100.00
30110;BME280;14965;50.660;13.226;2023-10-19T12:07:56;93081.84;;;12.39;100.00
30110;BME280;14965;50.660;13.226;2023-10-19T12:10:22;93077.56;;;12.38;100.00
30110;BME280;14965;50.660;13.226;2023-10-19T12:12:48;93078.09;;;12.42;100.00
30110;BME280;14965;50.660;13.226;2023-10-19T12:15:14;93072.59;;;12.48;100.00
30110;BME280;14965;50.660;13.226;2023-10-19T12:17:40;93065.09;;;12.59;100.00
30110;BME280;14965;50.660;13.226;2023-10-19T12:20:08;93059.59;;;12.70;100.00
30110;BME280;14965;50.660;13.226;2023-10-19T12:22:33;93063.19;;;12.77;100.00
30110;BME280;14965;50.660;13.226;2023-10-19T12:25:00;93061.19;;;12.83;100.00
30110;BME280;14965;50.660;13.226;2023-10-19T12:27:26;93064.47;;;12.87;100.00
30110;BME280;14965;50.660;13.226;2023-10-19T12:29:52;93062.72;;;12.84;100.00
30110;BME280;14965;50.660;13.226;2023-10-19T12:32:18;93049.09;;;12.86;100.00
30110;BME280;14965;50.660;13.226;2023-10-19T12:34:44;93053.13;;;12.85;100.00
30110;BME280;14965;50.660;13.226;2023-10-19T12:37:11;93055.41;;;12.86;100.00
30110;BME280;14965;50.660;13.226;2023-10-19T12:39:37;93056.91;;;12.87;100.00
30110;BME280;14965;50.660;13.226;2023-10-19T12:42:03;93051.66;;;12.89;100.00
30110;BME280;14965;50.660;13.226;2023-10-19T12:44:29;93052.66;;;12.92;100.00
30110;BME280;14965;50.660;13.226;2023-10-19T12:46:55;93046.13;;;12.95;100.00
30110;BME280;14965;50.660;13.226;2023-10-19T12:49:21;93044.59;;;12.94;100.00
30110;BME280;14965;50.660;13.226;2023-10-19T12:51:47;93045.88;;;12.93;100.00